createdAt,value
2018-05-09T00:00:51.183Z,53.71
2018-05-09T00:01:55.450Z,53.92
2018-05-09T00:02:59.566Z,54.11
2018-05-09T00:04:03.724Z,53.51
2018-05-09T00:05:08.124Z,53.45
2018-05-09T00:06:12.225Z,53.46
2018-05-09T00:07:16.330Z,53.64
2018-05-09T00:08:20.460Z,53.76
2018-05-09T00:09:24.532Z,53.90
2018-05-09T00:10:28.589Z,53.80
2018-05-09T00:11:32.979Z,53.67
2018-05-09T00:12:37.198Z,53.55
2018-05-09T00:13:41.359Z,53.42
2018-05-09T00:14:45.422Z,53.50
2018-05-09T00:15:49.566Z,53.52
2018-05-09T00:16:53.700Z,53.61
2018-05-09T00:17:58.185Z,53.68
2018-05-09T00:19:02.385Z,53.17
2018-05-09T00:20:06.800Z,52.98
2018-05-09T00:21:11.530Z,53.05
2018-05-09T00:22:16.606Z,53.54
2018-05-09T00:23:20.692Z,53.65
2018-05-09T00:24:24.814Z,53.86
2018-05-09T00:25:28.904Z,54.09
2018-05-09T00:26:32.981Z,54.29
2018-05-09T00:27:37.138Z,54.43
2018-05-09T00:28:41.268Z,54.48
2018-05-09T00:29:45.852Z,54.47
2018-05-09T00:30:50.286Z,54.56
2018-05-09T00:31:54.664Z,54.44
2018-05-09T00:32:58.754Z,54.47
2018-05-09T00:34:02.866Z,54.38
2018-05-09T00:35:06.922Z,54.47
2018-05-09T00:36:11.322Z,54.50
2018-05-09T00:37:15.421Z,54.40
2018-05-09T00:38:19.550Z,54.12
2018-05-09T00:39:23.631Z,54.15
2018-05-09T00:40:27.780Z,54.18
2018-05-09T00:41:31.866Z,54.22
2018-05-09T00:42:36.293Z,54.12
2018-05-09T00:43:40.480Z,54.41
2018-05-09T00:44:44.593Z,54.40
2018-05-09T00:45:49.283Z,54.50
2018-05-09T00:46:53.435Z,54.67
2018-05-09T00:47:58.433Z,54.79
2018-05-09T00:49:02.600Z,54.92
2018-05-09T00:50:06.804Z,54.82
2018-05-09T00:51:10.834Z,55.22
2018-05-09T00:52:15.413Z,55.29
2018-05-09T00:53:19.472Z,55.26
2018-05-09T00:54:33.670Z,55.31
2018-05-09T00:55:37.726Z,55.24
2018-05-09T00:56:41.880Z,55.16
2018-05-09T00:57:45.980Z,55.05
2018-05-09T00:58:50.031Z,55.30
2018-05-09T00:59:54.173Z,55.36
2018-05-09T01:00:58.712Z,55.11
2018-05-09T01:02:03.110Z,55.07
2018-05-09T01:03:07.462Z,55.03
2018-05-09T01:04:11.549Z,55.37
2018-05-09T01:05:16.558Z,55.57
2018-05-09T01:06:20.734Z,55.56
2018-05-09T01:07:25.284Z,55.70
2018-05-09T01:08:29.439Z,56.15
2018-05-09T01:09:33.585Z,56.12
2018-05-09T01:10:37.680Z,56.18
2018-05-09T01:11:41.828Z,56.40
2018-05-09T01:12:45.915Z,56.47
2018-05-09T01:13:50.351Z,56.77
2018-05-09T01:14:55.249Z,56.46
2018-05-09T01:16:00.061Z,56.29
2018-05-09T01:17:04.201Z,56.36
2018-05-09T01:18:08.270Z,56.63
2018-05-09T01:19:12.346Z,56.46
2018-05-09T01:20:17.397Z,56.45
2018-05-09T01:21:21.517Z,56.43
2018-05-09T01:22:25.663Z,56.48
2018-05-09T01:23:30.419Z,56.63
2018-05-09T01:24:34.661Z,56.30
2018-05-09T01:25:38.824Z,56.30
2018-05-09T01:26:43.386Z,56.17
2018-05-09T01:27:47.619Z,56.36
2018-05-09T01:28:51.782Z,56.33
2018-05-09T01:29:56.495Z,56.33
2018-05-09T01:31:00.805Z,56.40
2018-05-09T01:32:04.921Z,56.65
2018-05-09T01:33:09.003Z,56.95
2018-05-09T01:34:13.056Z,57.22
2018-05-09T01:35:17.142Z,57.12
2018-05-09T01:36:21.287Z,56.90
2018-05-09T01:37:25.354Z,57.05
2018-05-09T01:38:29.426Z,57.15
2018-05-09T01:39:34.318Z,56.93
2018-05-09T01:40:38.417Z,57.04
2018-05-09T01:41:42.567Z,56.99
2018-05-09T01:42:46.712Z,57.11
2018-05-09T01:43:50.832Z,56.88
2018-05-09T01:44:56.867Z,56.73
2018-05-09T01:46:01.533Z,56.97
2018-05-09T01:47:05.604Z,56.69
2018-05-09T01:48:09.670Z,56.64
2018-05-09T01:49:15.096Z,56.59
2018-05-09T01:50:19.989Z,56.48
2018-05-09T01:51:24.379Z,56.50
2018-05-09T01:52:28.683Z,56.62
2018-05-09T01:53:33.201Z,56.91
2018-05-09T01:54:37.784Z,57.36
2018-05-09T01:55:42.236Z,57.52
2018-05-09T01:56:47.122Z,57.79
2018-05-09T01:57:51.671Z,57.66
2018-05-09T01:58:55.745Z,57.67
2018-05-09T01:59:59.881Z,57.66
2018-05-09T02:01:04.439Z,57.41
2018-05-09T02:02:09.836Z,57.49
2018-05-09T02:03:14.230Z,57.52
2018-05-09T02:04:18.306Z,57.63
2018-05-09T02:05:22.457Z,57.80
2018-05-09T02:06:26.548Z,57.86
2018-05-09T02:07:30.662Z,57.96
2018-05-09T02:08:34.747Z,58.31
2018-05-09T02:09:38.886Z,58.59
2018-05-09T02:10:43.026Z,58.35
2018-05-09T02:11:47.106Z,58.36
2018-05-09T02:12:51.177Z,57.94
2018-05-09T02:13:55.266Z,57.80
2018-05-09T02:14:59.694Z,57.87
2018-05-09T02:16:04.456Z,57.82
2018-05-09T02:17:08.539Z,58.02
2018-05-09T02:18:12.634Z,58.19
2018-05-09T02:19:16.757Z,58.33
2018-05-09T02:20:20.928Z,58.39
2018-05-09T02:21:25.916Z,58.31
2018-05-09T02:22:30.268Z,58.38
2018-05-09T02:23:34.350Z,58.70
2018-05-09T02:24:38.456Z,58.62
2018-05-09T02:25:42.587Z,58.58
2018-05-09T02:26:46.663Z,58.58
2018-05-09T02:27:50.734Z,58.74
2018-05-09T02:28:55.181Z,59.01
2018-05-09T02:29:59.468Z,59.07
2018-05-09T02:31:04.945Z,58.62
2018-05-09T02:32:09.039Z,58.40
2018-05-09T02:33:13.120Z,58.09
2018-05-09T02:34:17.203Z,58.25
2018-05-09T02:35:22.779Z,58.37
2018-05-09T02:36:26.863Z,58.17
2018-05-09T02:37:30.939Z,58.17
2018-05-09T02:38:35.011Z,58.26
2018-05-09T02:39:39.175Z,58.54
2018-05-09T02:40:43.372Z,58.66
2018-05-09T02:41:47.422Z,58.78
2018-05-09T02:42:51.501Z,59.06
2018-05-09T02:43:55.586Z,59.13
2018-05-09T02:44:59.697Z,59.00
2018-05-09T02:46:04.284Z,59.50
2018-05-09T02:47:08.980Z,59.39
2018-05-09T02:48:13.033Z,59.09
2018-05-09T02:49:17.174Z,58.88
2018-05-09T02:50:21.919Z,58.98
2018-05-09T02:51:26.062Z,59.10
2018-05-09T02:52:30.143Z,58.96
2018-05-09T02:53:34.542Z,58.95
2018-05-09T02:54:39.305Z,59.29
2018-05-09T02:55:44.016Z,59.71
2018-05-09T02:56:48.118Z,59.90
2018-05-09T02:57:52.224Z,59.86
2018-05-09T02:58:56.286Z,60.29
2018-05-09T03:00:00.689Z,60.65
2018-05-09T03:01:05.174Z,60.87
2018-05-09T03:02:09.322Z,61.02
2018-05-09T03:03:13.425Z,60.94
2018-05-09T03:04:17.503Z,60.95
2018-05-09T03:05:21.613Z,60.99
2018-05-09T03:06:25.772Z,60.79
2018-05-09T03:07:30.475Z,60.80
2018-05-09T03:08:34.559Z,61.05
2018-05-09T03:09:38.707Z,60.66
2018-05-09T03:10:42.751Z,60.80
2018-05-09T03:11:47.225Z,60.93
2018-05-09T03:12:51.851Z,60.98
2018-05-09T03:13:55.933Z,60.89
2018-05-09T03:15:00.526Z,60.82
2018-05-09T03:16:04.972Z,60.70
2018-05-09T03:17:09.080Z,60.47
2018-05-09T03:18:13.502Z,60.77
2018-05-09T03:19:17.612Z,60.71
2018-05-09T03:20:21.743Z,60.44
2018-05-09T03:21:25.803Z,60.69
2018-05-09T03:22:30.562Z,60.68
2018-05-09T03:23:35.800Z,60.53
2018-05-09T03:24:39.885Z,60.35
2018-05-09T03:25:43.939Z,60.33
2018-05-09T03:26:48.126Z,60.63
2018-05-09T03:27:52.310Z,60.85
2018-05-09T03:28:56.452Z,60.92
2018-05-09T03:30:02.640Z,60.96
2018-05-09T03:31:07.156Z,61.07
2018-05-09T03:32:11.430Z,61.35
2018-05-09T03:33:15.573Z,61.16
2018-05-09T03:34:20.067Z,61.20
2018-05-09T03:35:24.142Z,61.13
2018-05-09T03:36:28.868Z,61.20
2018-05-09T03:37:34.060Z,60.99
2018-05-09T03:38:38.250Z,61.25
2018-05-09T03:39:42.328Z,61.63
2018-05-09T03:40:46.438Z,61.75
2018-05-09T03:41:50.519Z,61.69
2018-05-09T03:42:54.636Z,61.68
2018-05-09T03:43:58.772Z,61.68
2018-05-09T03:45:04.349Z,61.59
2018-05-09T03:46:08.847Z,61.76
2018-05-09T03:47:12.918Z,62.09
2018-05-09T03:48:16.980Z,61.74
2018-05-09T03:49:21.555Z,61.96
2018-05-09T03:50:25.647Z,61.99
2018-05-09T03:51:30.705Z,62.00
2018-05-09T03:52:34.820Z,61.66
2018-05-09T03:53:38.959Z,61.48
2018-05-09T03:54:43.099Z,61.64
2018-05-09T03:55:47.481Z,61.68
2018-05-09T03:56:51.953Z,61.96
2018-05-09T03:57:56.018Z,62.15
2018-05-09T03:59:00.109Z,62.08
2018-05-09T04:00:06.484Z,61.89
2018-05-09T04:01:11.539Z,61.87
2018-05-09T04:02:26.611Z,61.76
2018-05-09T04:07:49.639Z,61.74
2018-05-09T04:09:56.185Z,61.56
2018-05-09T04:11:00.259Z,61.29
2018-05-09T04:12:04.415Z,61.37
2018-05-09T04:13:08.492Z,61.64
2018-05-09T04:14:12.915Z,61.54
2018-05-09T04:15:17.333Z,61.35
2018-05-09T04:16:21.466Z,60.91
2018-05-09T04:17:25.527Z,60.50
2018-05-09T04:18:29.666Z,60.35
2018-05-09T04:19:34.171Z,60.23
2018-05-09T04:20:38.914Z,59.87
2018-05-09T04:21:43.073Z,59.57
2018-05-09T04:22:47.240Z,59.49
2018-05-09T04:23:51.790Z,59.53
2018-05-09T04:24:56.123Z,59.65
2018-05-09T04:26:00.331Z,59.33
2018-05-09T04:27:04.993Z,59.32
2018-05-09T04:28:09.942Z,58.92
2018-05-09T04:29:14.027Z,58.79
2018-05-09T04:30:18.282Z,58.57
2018-05-09T04:31:22.377Z,58.16
2018-05-09T04:32:26.629Z,57.64
2018-05-09T04:33:31.793Z,57.19
2018-05-09T04:34:35.921Z,57.19
2018-05-09T04:35:40.105Z,57.07
2018-05-09T04:36:44.179Z,56.77
2018-05-09T04:37:48.231Z,56.13
2018-05-09T04:38:52.369Z,55.71
2018-05-09T04:39:56.527Z,54.89
2018-05-09T04:41:00.616Z,54.89
2018-05-09T04:42:04.778Z,54.80
2018-05-09T04:43:09.349Z,54.61
2018-05-09T04:44:13.521Z,54.41
2018-05-09T04:45:18.427Z,54.46
2018-05-09T04:46:22.775Z,53.88
2018-05-09T04:47:26.852Z,53.78
2018-05-09T04:48:31.708Z,53.64
2018-05-09T04:49:35.844Z,53.64
2018-05-09T04:50:39.908Z,53.25
2018-05-09T04:51:44.060Z,53.02
2018-05-09T04:52:48.134Z,52.81
2018-05-09T04:53:52.212Z,52.73
2018-05-09T04:54:56.410Z,52.48
2018-05-09T04:56:00.542Z,52.07
2018-05-09T04:57:05.024Z,52.12
2018-05-09T04:58:09.130Z,51.99
2018-05-09T04:59:13.191Z,51.91
2018-05-09T05:00:17.578Z,51.24
2018-05-09T05:01:21.644Z,50.93
2018-05-09T05:02:25.715Z,50.94
2018-05-09T05:03:29.822Z,50.74
2018-05-09T05:04:34.415Z,50.58
2018-05-09T05:05:38.567Z,50.07
2018-05-09T05:06:42.667Z,49.73
2018-05-09T05:07:46.732Z,49.82
2018-05-09T05:08:50.802Z,49.58
2018-05-09T05:09:55.180Z,49.58
2018-05-09T05:10:59.350Z,49.45
2018-05-09T05:12:03.506Z,49.36
2018-05-09T05:13:07.583Z,49.19
2018-05-09T05:14:11.663Z,49.03
2018-05-09T05:15:16.512Z,49.30
2018-05-09T05:16:20.571Z,49.09
2018-05-09T05:17:24.638Z,49.07
2018-05-09T05:18:28.799Z,47.82
2018-05-09T05:19:32.871Z,47.81
2018-05-09T05:20:37.257Z,47.58
2018-05-09T05:21:42.096Z,47.71
2018-05-09T05:22:46.193Z,47.33
2018-05-09T05:23:50.272Z,47.26
2018-05-09T05:24:54.422Z,46.98
2018-05-09T05:25:58.663Z,47.23
2018-05-09T05:27:03.140Z,46.81
2018-05-09T05:28:07.466Z,46.87
2018-05-09T05:29:11.622Z,46.34
2018-05-09T05:30:16.847Z,46.37
2018-05-09T05:31:21.426Z,46.72
2018-05-09T05:32:25.493Z,46.42
2018-05-09T05:33:29.982Z,46.54
2018-05-09T05:34:34.070Z,46.97
2018-05-09T05:35:38.179Z,46.76
2018-05-09T05:36:42.232Z,47.12
2018-05-09T05:37:46.362Z,47.17
2018-05-09T05:38:50.477Z,46.51
2018-05-09T05:39:54.567Z,46.66
2018-05-09T05:40:58.638Z,46.06
2018-05-09T05:42:03.296Z,46.15
2018-05-09T05:43:07.709Z,45.63
2018-05-09T05:44:11.774Z,45.72
2018-05-09T05:45:17.023Z,45.07
2018-05-09T05:46:21.412Z,44.80
2018-05-09T05:47:25.488Z,44.38
2018-05-09T05:48:29.614Z,44.66
2018-05-09T05:49:33.810Z,44.61
2018-05-09T05:50:37.972Z,44.69
2018-05-09T05:51:42.402Z,44.85
2018-05-09T05:52:46.480Z,44.92
2018-05-09T05:53:50.686Z,45.07
2018-05-09T05:54:54.767Z,45.02
2018-05-09T05:55:58.920Z,44.94
2018-05-09T05:57:03.032Z,44.87
2018-05-09T05:58:07.486Z,44.37
2018-05-09T05:59:11.561Z,44.35
2018-05-09T06:00:18.141Z,44.54
2018-05-09T06:01:22.240Z,44.68
2018-05-09T06:02:26.383Z,44.84
2018-05-09T06:03:30.523Z,43.75
2018-05-09T06:04:34.909Z,44.02
2018-05-09T06:05:39.030Z,44.25
2018-05-09T06:06:43.178Z,43.87
2018-05-09T06:07:47.266Z,43.23
2018-05-09T06:08:51.387Z,43.25
2018-05-09T06:09:56.131Z,43.45
2018-05-09T06:11:00.587Z,43.93
2018-05-09T06:12:04.647Z,43.52
2018-05-09T06:13:08.809Z,43.29
2018-05-09T06:14:12.887Z,43.05
2018-05-09T06:15:17.931Z,43.32
2018-05-09T06:16:22.027Z,43.61
2018-05-09T06:17:27.507Z,42.93
2018-05-09T06:18:31.632Z,42.81
2018-05-09T06:19:35.767Z,42.57
2018-05-09T06:20:40.499Z,42.82
2018-05-09T06:21:44.577Z,42.43
2018-05-09T06:22:48.683Z,42.60
2018-05-09T06:23:52.864Z,42.39
2018-05-09T06:24:56.935Z,42.38
2018-05-09T06:26:01.035Z,42.21
2018-05-09T06:27:05.191Z,42.01
2018-05-09T06:28:09.355Z,41.76
2018-05-09T06:29:13.839Z,41.76
2018-05-09T06:30:17.961Z,41.29
2018-05-09T06:31:22.029Z,41.19
2018-05-09T06:32:26.117Z,41.05
2018-05-09T06:33:30.278Z,41.38
2018-05-09T06:34:34.376Z,41.84
2018-05-09T06:35:38.746Z,41.64
2018-05-09T06:36:43.357Z,41.27
2018-05-09T06:37:47.522Z,41.96
2018-05-09T06:38:51.621Z,41.54
2018-05-09T06:39:55.658Z,41.53
2018-05-09T06:40:59.779Z,41.09
2018-05-09T06:42:03.883Z,40.30
2018-05-09T06:43:07.956Z,39.40
2018-05-09T06:44:12.133Z,39.62
2018-05-09T06:45:21.130Z,38.87
2018-05-09T06:46:25.500Z,38.84
2018-05-09T06:47:29.570Z,39.06
2018-05-09T06:48:33.743Z,38.89
2018-05-09T06:49:37.904Z,39.14
2018-05-09T06:50:43.714Z,38.64
2018-05-09T06:51:47.775Z,38.33
2018-05-09T06:52:51.843Z,38.47
2018-05-09T06:53:55.894Z,38.69
2018-05-09T06:55:00.120Z,39.27
2018-05-09T06:56:04.352Z,38.88
2018-05-09T06:57:08.684Z,38.91
2018-05-09T06:58:12.832Z,38.58
2018-05-09T06:59:17.318Z,38.25
2018-05-09T07:00:21.730Z,37.88
2018-05-09T07:01:25.885Z,37.96
2018-05-09T07:02:29.952Z,37.92
2018-05-09T07:03:34.033Z,38.00
2018-05-09T07:04:38.114Z,38.62
2018-05-09T07:05:43.182Z,37.70
2018-05-09T07:06:47.521Z,37.77
2018-05-09T07:07:51.384Z,37.42
2018-05-09T07:08:55.491Z,36.77
2018-05-09T07:09:59.656Z,36.13
2018-05-09T07:11:03.834Z,35.41
2018-05-09T07:12:08.245Z,36.22
2018-05-09T07:13:13.561Z,36.31
2018-05-09T07:14:18.404Z,36.61
2018-05-09T07:15:22.502Z,37.36
2018-05-09T07:16:26.563Z,37.60
2018-05-09T07:17:30.628Z,37.30
2018-05-09T07:18:35.061Z,37.12
2018-05-09T07:19:39.124Z,36.99
2018-05-09T07:20:43.302Z,36.80
2018-05-09T07:21:47.486Z,37.55
2018-05-09T07:22:51.644Z,36.77
2018-05-09T07:23:55.748Z,36.56
2018-05-09T07:24:59.846Z,36.17
2018-05-09T07:26:04.018Z,37.22
2018-05-09T07:27:08.747Z,35.97
2018-05-09T07:28:12.902Z,35.24
2018-05-09T07:29:17.668Z,34.48
2018-05-09T07:30:21.723Z,34.42
2018-05-09T07:31:26.098Z,33.57
2018-05-09T07:32:30.194Z,32.90
2018-05-09T07:33:34.242Z,33.71
2018-05-09T07:34:38.324Z,33.85
2018-05-09T07:35:42.486Z,34.07
2018-05-09T07:36:46.578Z,34.50
2018-05-09T07:37:50.966Z,34.29
2018-05-09T07:38:55.022Z,34.17
2018-05-09T07:39:59.212Z,34.04
2018-05-09T07:41:03.389Z,33.52
2018-05-09T07:42:07.480Z,33.54
2018-05-09T07:43:11.631Z,34.13
2018-05-09T07:44:15.762Z,34.75
2018-05-09T07:45:20.116Z,33.59
2018-05-09T07:46:24.200Z,32.91
2018-05-09T07:47:28.278Z,33.13
2018-05-09T07:48:32.407Z,32.82
2018-05-09T07:49:36.796Z,32.95
2018-05-09T07:50:40.868Z,33.33
2018-05-09T07:51:45.925Z,32.62
2018-05-09T07:52:49.992Z,32.48
2018-05-09T07:53:54.156Z,32.24
2018-05-09T07:54:58.330Z,32.15
2018-05-09T07:56:02.806Z,32.33
2018-05-09T07:57:06.915Z,31.79
2018-05-09T07:58:11.006Z,32.04
2018-05-09T07:59:16.037Z,31.78
2018-05-09T08:00:20.379Z,32.31
2018-05-09T08:01:24.544Z,32.88
2018-05-09T08:02:29.027Z,33.17
2018-05-09T08:03:33.114Z,32.75
2018-05-09T08:04:37.282Z,32.76
2018-05-09T08:05:41.914Z,32.91
2018-05-09T08:06:46.600Z,32.93
2018-05-09T08:07:50.682Z,33.57
2018-05-09T08:08:54.746Z,32.49
2018-05-09T08:09:58.962Z,32.86
2018-05-09T08:11:03.166Z,33.01
2018-05-09T08:12:07.235Z,32.87
2018-05-09T08:13:11.345Z,31.92
2018-05-09T08:14:16.409Z,31.86
2018-05-09T08:15:20.802Z,31.72
2018-05-09T08:16:25.127Z,31.96
2018-05-09T08:17:29.244Z,31.80
2018-05-09T08:18:33.334Z,31.65
2018-05-09T08:19:37.499Z,31.90
2018-05-09T08:20:41.917Z,31.85
2018-05-09T08:21:47.032Z,31.65
2018-05-09T08:22:51.089Z,31.05
2018-05-09T08:23:55.463Z,32.18
2018-05-09T08:24:59.606Z,32.03
2018-05-09T08:26:03.755Z,32.43
2018-05-09T08:27:08.163Z,30.96
2018-05-09T08:28:12.267Z,30.21
2018-05-09T08:29:17.041Z,30.33
2018-05-09T08:30:21.529Z,30.65
2018-05-09T08:31:25.572Z,31.87
2018-05-09T08:32:30.033Z,31.50
2018-05-09T08:33:34.131Z,30.76
2018-05-09T08:34:38.217Z,30.11
2018-05-09T08:35:42.307Z,30.48
2018-05-09T08:36:46.463Z,30.07
2018-05-09T08:37:50.582Z,29.75
2018-05-09T08:38:55.069Z,30.11
2018-05-09T08:39:59.205Z,29.59
2018-05-09T08:41:03.369Z,30.18
2018-05-09T08:42:07.760Z,30.52
2018-05-09T08:43:12.001Z,30.43
2018-05-09T08:44:16.013Z,29.83
2018-05-09T08:45:20.235Z,29.92
2018-05-09T08:46:24.567Z,30.06
2018-05-09T08:47:28.669Z,29.19
2018-05-09T08:48:32.739Z,29.12
2018-05-09T08:49:36.854Z,28.97
2018-05-09T08:50:41.253Z,29.81
2018-05-09T08:51:45.419Z,29.74
2018-05-09T08:52:50.121Z,29.36
2018-05-09T08:53:54.289Z,29.69
2018-05-09T08:54:58.423Z,30.03
2018-05-09T08:56:02.699Z,30.24
2018-05-09T08:57:08.111Z,29.72
2018-05-09T08:58:12.195Z,29.08
2018-05-09T08:59:16.279Z,29.17
2018-05-09T09:00:20.719Z,29.63
2018-05-09T09:01:25.105Z,29.91
2018-05-09T09:02:29.222Z,29.21
2018-05-09T09:03:33.603Z,29.25
2018-05-09T09:04:37.717Z,29.55
2018-05-09T09:05:41.913Z,29.74
2018-05-09T09:06:45.983Z,29.03
2018-05-09T09:07:50.089Z,28.41
2018-05-09T09:08:54.187Z,28.91
2018-05-09T09:09:58.301Z,28.29
2018-05-09T09:11:02.543Z,28.60
2018-05-09T09:12:07.017Z,28.36
2018-05-09T09:13:11.107Z,28.42
2018-05-09T09:14:15.747Z,28.89
2018-05-09T09:15:20.025Z,29.94
2018-05-09T09:16:24.375Z,28.45
2018-05-09T09:17:28.539Z,28.59
2018-05-09T09:18:32.659Z,28.58
2018-05-09T09:19:36.837Z,27.88
2018-05-09T09:20:40.901Z,27.41
2018-05-09T09:21:45.367Z,27.49
2018-05-09T09:22:49.483Z,27.17
2018-05-09T09:23:54.007Z,26.71
2018-05-09T09:24:58.137Z,27.22
2018-05-09T09:26:02.283Z,27.63
2018-05-09T09:27:06.377Z,27.70
2018-05-09T09:28:10.829Z,27.32
2018-05-09T09:29:16.116Z,27.62
2018-05-09T09:30:20.209Z,27.57
2018-05-09T09:31:24.263Z,27.40
2018-05-09T09:32:28.337Z,27.04
2018-05-09T09:33:32.496Z,26.82
2018-05-09T09:34:36.565Z,26.45
2018-05-09T09:35:40.725Z,26.75
2018-05-09T09:36:44.850Z,26.67
2018-05-09T09:37:49.328Z,26.71
2018-05-09T09:38:53.405Z,27.07
2018-05-09T09:39:57.759Z,27.53
2018-05-09T09:41:01.831Z,26.41
2018-05-09T09:42:06.117Z,26.78
2018-05-09T09:43:10.179Z,26.50
2018-05-09T09:44:14.257Z,25.77
2018-05-09T09:45:18.580Z,26.55
2018-05-09T09:46:23.047Z,26.18
2018-05-09T09:47:27.431Z,26.70
2018-05-09T09:48:31.613Z,25.63
2018-05-09T09:49:35.722Z,25.60
2018-05-09T09:50:39.866Z,25.90
2018-05-09T09:51:43.879Z,26.39
2018-05-09T09:52:48.367Z,25.64
2018-05-09T09:53:52.467Z,26.20
2018-05-09T09:54:56.554Z,26.41
2018-05-09T09:56:00.631Z,26.10
2018-05-09T09:57:04.810Z,25.73
2018-05-09T09:58:09.299Z,25.33
2018-05-09T09:59:13.477Z,25.53
2018-05-09T10:00:21.915Z,25.47
2018-05-09T10:01:26.026Z,26.08
2018-05-09T10:02:30.083Z,25.33
2018-05-09T10:03:34.986Z,25.93
2018-05-09T10:04:39.361Z,25.89
2018-05-09T10:05:43.501Z,25.73
2018-05-09T10:06:47.687Z,25.76
2018-05-09T10:07:52.369Z,24.98
2018-05-09T10:08:56.503Z,25.42
2018-05-09T10:10:00.567Z,25.45
2018-05-09T10:11:05.837Z,25.24
2018-05-09T10:12:09.928Z,24.95
2018-05-09T10:13:14.193Z,24.85
2018-05-09T10:14:18.471Z,25.24
2018-05-09T10:15:22.607Z,25.81
2018-05-09T10:16:27.301Z,25.18
2018-05-09T10:17:32.259Z,25.81
2018-05-09T10:18:37.251Z,25.81
2018-05-09T10:19:41.421Z,25.66
2018-05-09T10:20:45.531Z,25.60
2018-05-09T10:21:49.687Z,25.75
2018-05-09T10:22:53.821Z,25.26
2018-05-09T10:23:58.293Z,25.49
2018-05-09T10:25:02.976Z,26.16
2018-05-09T10:26:07.605Z,27.14
2018-05-09T10:27:11.745Z,26.82
2018-05-09T10:28:15.902Z,26.19
2018-05-09T10:29:20.079Z,26.32
2018-05-09T10:30:24.257Z,25.99
2018-05-09T10:31:28.436Z,25.85
2018-05-09T10:32:32.531Z,25.69
2018-05-09T10:33:37.142Z,25.04
2018-05-09T10:34:41.298Z,24.60
2018-05-09T10:35:45.833Z,24.65
2018-05-09T10:36:49.937Z,24.78
2018-05-09T10:37:54.093Z,24.54
2018-05-09T10:38:58.205Z,23.83
2018-05-09T10:40:02.318Z,23.86
2018-05-09T10:41:06.431Z,23.38
2018-05-09T10:42:11.005Z,23.78
2018-05-09T10:43:16.108Z,22.94
2018-05-09T10:44:20.315Z,22.54
2018-05-09T10:45:24.675Z,22.94
2018-05-09T10:46:29.056Z,22.10
2018-05-09T10:47:33.593Z,22.37
2018-05-09T10:48:38.283Z,22.35
2018-05-09T10:49:42.352Z,22.35
2018-05-09T10:50:46.744Z,22.34
2018-05-09T10:51:50.771Z,21.81
2018-05-09T10:52:54.949Z,21.30
2018-05-09T10:53:59.427Z,20.82
2018-05-09T10:55:03.607Z,21.59
2018-05-09T10:56:07.709Z,21.61
2018-05-09T10:57:11.967Z,22.38
2018-05-09T10:58:16.160Z,23.00
2018-05-09T10:59:20.357Z,22.20
2018-05-09T11:00:24.963Z,21.60
2018-05-09T11:01:29.043Z,22.22
2018-05-09T11:02:33.259Z,22.97
2018-05-09T11:03:37.363Z,22.08
2018-05-09T11:04:41.445Z,21.78
2018-05-09T11:05:45.564Z,21.44
2018-05-09T11:06:49.646Z,21.42
2018-05-09T11:07:53.856Z,21.56
2018-05-09T11:08:57.960Z,22.19
2018-05-09T11:10:02.103Z,23.38
2018-05-09T11:11:06.242Z,23.67
2018-05-09T11:12:10.630Z,23.50
2018-05-09T11:13:14.819Z,23.11
2018-05-09T11:14:18.991Z,22.89
2018-05-09T11:15:23.454Z,21.88
2018-05-09T11:16:27.556Z,21.91
2018-05-09T11:17:31.662Z,22.22
2018-05-09T11:18:36.142Z,21.93
2018-05-09T11:19:40.226Z,22.86
2018-05-09T11:20:44.304Z,22.98
2018-05-09T11:21:48.382Z,22.35
2018-05-09T11:22:52.554Z,22.24
2018-05-09T11:23:56.630Z,22.03
2018-05-09T11:25:01.139Z,22.53
2018-05-09T11:26:06.498Z,21.78
2018-05-09T11:27:10.564Z,21.59
2018-05-09T11:28:14.745Z,21.58
2018-05-09T11:29:18.886Z,21.17
2018-05-09T11:30:23.499Z,20.15
2018-05-09T11:31:28.016Z,20.81
2018-05-09T11:32:32.444Z,21.37
2018-05-09T11:33:37.526Z,20.98
2018-05-09T11:34:41.677Z,21.32
2018-05-09T11:35:45.843Z,21.29
2018-05-09T11:36:50.232Z,21.41
2018-05-09T11:37:54.349Z,21.87
2018-05-09T11:38:58.433Z,21.41
2018-05-09T11:40:03.800Z,22.37
2018-05-09T11:41:08.779Z,23.41
2018-05-09T11:42:12.885Z,23.75
2018-05-09T11:43:17.103Z,24.34
2018-05-09T11:44:21.235Z,24.08
2018-05-09T11:45:25.339Z,24.05
2018-05-09T11:46:29.561Z,23.79
2018-05-09T11:47:33.646Z,23.64
2018-05-09T11:48:38.344Z,23.47
2018-05-09T11:49:42.711Z,23.76
2018-05-09T11:50:46.896Z,22.50
2018-05-09T11:51:51.043Z,23.46
2018-05-09T11:52:55.123Z,23.48
2018-05-09T11:53:59.195Z,22.91
2018-05-09T11:55:03.388Z,22.80
2018-05-09T11:56:07.760Z,21.93
2018-05-09T11:57:11.879Z,21.39
2018-05-09T11:58:15.993Z,21.27
2018-05-09T11:59:20.360Z,20.65
2018-05-09T12:00:24.423Z,20.01
2018-05-09T12:01:28.597Z,20.58
2018-05-09T12:02:33.043Z,20.16
2018-05-09T12:03:37.747Z,20.47
2018-05-09T12:04:41.902Z,20.05
2018-05-09T12:05:46.027Z,19.56
2018-05-09T12:06:50.152Z,19.55
2018-05-09T12:07:54.357Z,20.60
2018-05-09T12:08:58.751Z,20.35
2018-05-09T12:10:03.721Z,20.11
2018-05-09T12:11:07.895Z,18.93
2018-05-09T12:12:12.098Z,18.91
2018-05-09T12:13:16.269Z,19.59
2018-05-09T12:14:20.653Z,20.79
2018-05-09T12:15:24.809Z,22.64
2018-05-09T12:16:29.072Z,22.14
2018-05-09T12:17:33.585Z,22.75
2018-05-09T12:18:38.127Z,22.40
2018-05-09T12:19:42.326Z,21.40
2018-05-09T12:20:46.395Z,20.81
2018-05-09T12:21:50.814Z,21.67
2018-05-09T12:22:54.927Z,21.97
2018-05-09T12:23:59.119Z,22.98
2018-05-09T12:25:04.291Z,22.24
2018-05-09T12:26:08.362Z,21.70
2018-05-09T12:27:12.545Z,21.83
2018-05-09T12:28:16.663Z,21.71
2018-05-09T12:29:20.829Z,20.48
2018-05-09T12:30:25.571Z,20.20
2018-05-09T12:31:29.662Z,19.71
2018-05-09T12:32:33.791Z,19.55
2018-05-09T12:33:38.280Z,18.92
2018-05-09T12:34:42.405Z,19.01
2018-05-09T12:35:46.574Z,19.09
2018-05-09T12:36:50.737Z,20.49
2018-05-09T12:37:54.838Z,22.13
2018-05-09T12:38:58.922Z,22.45
2018-05-09T12:40:04.057Z,21.29
2018-05-09T12:41:08.351Z,21.99
2018-05-09T12:42:12.459Z,21.43
2018-05-09T12:43:16.643Z,21.68
2018-05-09T12:44:20.763Z,21.25
2018-05-09T12:45:25.303Z,21.42
2018-05-09T12:46:29.945Z,21.11
2018-05-09T12:47:34.322Z,21.05
2018-05-09T12:48:38.652Z,20.94
2018-05-09T12:49:43.750Z,20.77
2018-05-09T12:50:48.108Z,19.57
2018-05-09T12:51:52.987Z,19.49
2018-05-09T12:52:57.098Z,20.11
2018-05-09T12:54:01.332Z,20.28
2018-05-09T12:55:05.966Z,20.35
2018-05-09T12:56:10.158Z,19.01
2018-05-09T12:57:14.336Z,19.43
2018-05-09T12:58:18.404Z,19.97
2018-05-09T12:59:22.619Z,21.33
2018-05-09T13:00:27.136Z,21.19
2018-05-09T13:01:31.233Z,20.28
2018-05-09T13:02:35.432Z,20.54
2018-05-09T13:03:40.042Z,20.96
2018-05-09T13:04:44.748Z,22.22
2018-05-09T13:05:48.826Z,22.35
2018-05-09T13:06:52.902Z,22.26
2018-05-09T13:07:57.098Z,23.19
2018-05-09T13:09:01.580Z,22.67
2018-05-09T13:10:05.689Z,22.08
2018-05-09T13:11:09.871Z,22.32
2018-05-09T13:12:13.910Z,21.82
2018-05-09T13:13:18.108Z,20.07
2018-05-09T13:14:22.258Z,19.56
2018-05-09T13:15:27.366Z,19.77
2018-05-09T13:16:31.440Z,19.81
2018-05-09T13:17:35.607Z,19.65
2018-05-09T13:18:39.691Z,19.94
2018-05-09T13:19:43.866Z,20.86
2018-05-09T13:20:47.978Z,22.41
2018-05-09T13:21:52.160Z,23.37
2018-05-09T13:24:03.885Z,22.78
2018-05-09T13:25:07.986Z,21.46
2018-05-09T13:26:12.060Z,21.76
2018-05-09T13:27:17.394Z,22.04
2018-05-09T13:28:21.593Z,22.86
2018-05-09T13:29:25.832Z,23.03
2018-05-09T13:30:30.178Z,22.34
2018-05-09T13:31:34.437Z,21.76
2018-05-09T13:32:38.553Z,21.64
2018-05-09T13:33:42.771Z,23.05
2018-05-09T13:34:46.918Z,23.52
2018-05-09T13:35:51.000Z,24.05
2018-05-09T13:36:55.072Z,23.47
2018-05-09T13:37:59.156Z,22.75
2018-05-09T13:39:03.356Z,23.25
2018-05-09T13:40:07.761Z,23.68
2018-05-09T13:41:11.900Z,22.25
2018-05-09T13:42:16.066Z,21.80
2018-05-09T13:43:20.256Z,21.61
2018-05-09T13:44:24.379Z,20.49
2018-05-09T13:45:28.887Z,20.41
2018-05-09T13:46:33.460Z,21.82
2018-05-09T13:47:37.574Z,21.95
2018-05-09T13:48:41.650Z,21.72
2018-05-09T13:49:46.374Z,21.09
2018-05-09T13:50:51.394Z,21.40
2018-05-09T13:51:55.574Z,22.15
2018-05-09T13:53:00.015Z,23.43
2018-05-09T13:54:04.176Z,23.63
2018-05-09T13:55:08.274Z,23.45